sensor_id;sensor_type;location;lat;lon;timestamp;pressure;altitude;pressure_sealevel;temperature;humidity
60371;BME280;48550;40.588;49.684;2022-08-19T00:01:23;100811.41;;;22.99;100.00
60371;BME280;48550;40.588;49.684;2022-08-19T00:03:50;100806.00;;;22.86;100.00
60371;BME280;48550;40.588;49.684;2022-08-19T00:06:16;100807.06;;;22.76;100.00
60371;BME280;48550;40.588;49.684;2022-08-19T00:08:42;100806.31;;;23.06;100.00
60371;BME280;48550;40.588;49.684;2022-08-19T00:11:08;100807.94;;;23.07;100.00
60371;BME280;48550;40.588;49.684;2022-08-19T00:13:34;100807.19;;;22.93;100.00
60371;BME280;48550;40.588;49.684;2022-08-19T00:16:00;100817.69;;;22.77;100.00
60371;BME280;48550;40.588;49.684;2022-08-19T00:18:26;100805.94;;;22.55;100.00
60371;BME280;48550;40.588;49.684;2022-08-19T00:20:52;100807.06;;;22.54;100.00
60371;BME280;48550;40.588;49.684;2022-08-19T00:23:18;100812.47;;;22.67;100.00
60371;BME280;48550;40.588;49.684;2022-08-19T00:25:44;100810.22;;;22.69;100.00
60371;BME280;48550;40.588;49.684;2022-08-19T00:28:10;100802.28;;;22.59;100.00
60371;BME280;48550;40.588;49.684;2022-08-19T00:30:36;100803.13;;;22.46;100.00
60371;BME280;48550;40.588;49.684;2022-08-19T00:33:02;100805.25;;;22.49;100.00
60371;BME280;48550;40.588;49.684;2022-08-19T00:35:28;100801.34;;;22.64;100.00
60371;BME280;48550;40.588;49.684;2022-08-19T00:37:54;100805.50;;;22.61;100.00
60371;BME280;48550;40.588;49.684;2022-08-19T00:40:21;100803.44;;;22.67;100.00
60371;BME280;48550;40.588;49.684;2022-08-19T00:42:47;100797.97;;;22.67;100.00
60371;BME280;48550;40.588;49.684;2022-08-19T00:45:16;100805.25;;;22.71;100.00
60371;BME280;48550;40.588;49.684;2022-08-19T00:47:44;100801.22;;;22.69;100.00
60371;BME280;48550;40.588;49.684;2022-08-19T00:50:13;100800.09;;;22.70;98.89
60371;BME280;48550;40.588;49.684;2022-08-19T00:52:43;100799.09;;;22.66;96.98
60371;BME280;48550;40.588;49.684;2022-08-19T00:55:15;100810.22;;;22.69;97.48
60371;BME280;48550;40.588;49.684;2022-08-19T00:57:46;100810.81;;;22.80;90.46
60371;BME280;48550;40.588;49.684;2022-08-19T01:00:17;100807.53;;;22.78;81.01
60371;BME280;48550;40.588;49.684;2022-08-19T01:02:44;100812.34;;;22.72;73.70
60371;BME280;48550;40.588;49.684;2022-08-19T01:05:14;100805.13;;;22.76;68.11
60371;BME280;48550;40.588;49.684;2022-08-19T01:07:41;100810.72;;;22.71;65.81
60371;BME280;48550;40.588;49.684;2022-08-19T01:10:10;100812.16;;;22.69;60.12
60371;BME280;48550;40.588;49.684;2022-08-19T01:12:37;100814.13;;;22.77;59.72
60371;BME280;48550;40.588;49.684;2022-08-19T01:15:06;100816.16;;;22.85;58.58
60371;BME280;48550;40.588;49.684;2022-08-19T01:17:33;100807.44;;;22.83;60.74
60371;BME280;48550;40.588;49.684;2022-08-19T01:19:59;100805.44;;;22.75;62.02
60371;BME280;48550;40.588;49.684;2022-08-19T01:22:34;100805.94;;;22.55;63.27
60371;BME280;48550;40.588;49.684;2022-08-19T01:25:03;100805.19;;;22.40;63.70
60371;BME280;48550;40.588;49.684;2022-08-19T01:27:40;100800.22;;;22.29;65.14
60371;BME280;48550;40.588;49.684;2022-08-19T01:30:08;100800.75;;;22.31;65.49
60371;BME280;48550;40.588;49.684;2022-08-19T01:32:34;100802.38;;;22.32;66.10
60371;BME280;48550;40.588;49.684;2022-08-19T01:35:02;100805.84;;;22.10;64.08
60371;BME280;48550;40.588;49.684;2022-08-19T01:37:29;100802.75;;;22.03;65.51
60371;BME280;48550;40.588;49.684;2022-08-19T01:39:56;100799.34;;;22.19;67.83
60371;BME280;48550;40.588;49.684;2022-08-19T01:42:21;100807.88;;;22.18;70.00
60371;BME280;48550;40.588;49.684;2022-08-19T01:44:47;100812.66;;;22.48;69.69
60371;BME280;48550;40.588;49.684;2022-08-19T01:47:14;100802.81;;;22.47;70.32
60371;BME280;48550;40.588;49.684;2022-08-19T01:49:40;100806.63;;;22.38;70.93
60371;BME280;48550;40.588;49.684;2022-08-19T01:52:06;100811.59;;;22.36;70.52
60371;BME280;48550;40.588;49.684;2022-08-19T01:54:33;100811.97;;;22.29;72.41
60371;BME280;48550;40.588;49.684;2022-08-19T01:57:07;100823.75;;;22.30;74.33
60371;BME280;48550;40.588;49.684;2022-08-19T01:59:34;100823.53;;;22.40;72.60
60371;BME280;48550;40.588;49.684;2022-08-19T02:02:03;100825.06;;;22.32;73.88
60371;BME280;48550;40.588;49.684;2022-08-19T02:04:32;100821.66;;;22.13;75.02
60371;BME280;48550;40.588;49.684;2022-08-19T02:06:59;100820.22;;;22.02;78.61
60371;BME280;48550;40.588;49.684;2022-08-19T02:09:24;100827.72;;;22.10;80.11
60371;BME280;48550;40.588;49.684;2022-08-19T02:11:50;100825.03;;;22.46;78.34
60371;BME280;48550;40.588;49.684;2022-08-19T02:14:16;100829.69;;;22.68;77.64
60371;BME280;48550;40.588;49.684;2022-08-19T02:16:42;100825.16;;;22.86;77.66
60371;BME280;48550;40.588;49.684;2022-08-19T02:19:08;100831.69;;;22.98;79.23
60371;BME280;48550;40.588;49.684;2022-08-19T02:21:34;100832.88;;;23.06;81.87
60371;BME280;48550;40.588;49.684;2022-08-19T02:24:00;100832.41;;;23.04;83.49
60371;BME280;48550;40.588;49.684;2022-08-19T02:26:26;100829.31;;;23.28;82.96
60371;BME280;48550;40.588;49.684;2022-08-19T02:28:52;100835.75;;;23.63;82.67
60371;BME280;48550;40.588;49.684;2022-08-19T02:31:20;100840.25;;;23.59;82.43
60371;BME280;48550;40.588;49.684;2022-08-19T02:33:46;100830.91;;;23.60;83.49
60371;BME280;48550;40.588;49.684;2022-08-19T02:36:14;100833.66;;;23.68;85.47
60371;BME280;48550;40.588;49.684;2022-08-19T02:38:43;100833.34;;;23.61;89.55
60371;BME280;48550;40.588;49.684;2022-08-19T02:41:16;100838.59;;;23.89;88.06
60371;BME280;48550;40.588;49.684;2022-08-19T02:43:42;100833.66;;;24.25;87.72
60371;BME280;48550;40.588;49.684;2022-08-19T02:46:24;100830.59;;;25.05;83.83
60371;BME280;48550;40.588;49.684;2022-08-19T02:48:54;100825.38;;;26.47;75.61
60371;BME280;48550;40.588;49.684;2022-08-19T02:51:26;100832.69;;;27.42;70.14
60371;BME280;48550;40.588;49.684;2022-08-19T02:53:52;100829.59;;;28.04;64.96
60371;BME280;48550;40.588;49.684;2022-08-19T02:56:20;100828.44;;;27.32;69.42
60371;BME280;48550;40.588;49.684;2022-08-19T02:58:46;100835.69;;;27.49;69.95
60371;BME280;48550;40.588;49.684;2022-08-19T03:01:24;100833.38;;;28.12;65.93
60371;BME280;48550;40.588;49.684;2022-08-19T03:03:51;100838.16;;;28.79;61.32
60371;BME280;48550;40.588;49.684;2022-08-19T03:06:17;100824.09;;;29.13;59.51
60371;BME280;48550;40.588;49.684;2022-08-19T03:08:45;100825.75;;;28.73;60.31
60371;BME280;48550;40.588;49.684;2022-08-19T03:11:37;100832.59;;;28.24;61.84
60371;BME280;48550;40.588;49.684;2022-08-19T03:14:03;100827.34;;;28.74;59.68
60371;BME280;48550;40.588;49.684;2022-08-19T03:16:32;100824.81;;;29.57;52.57
60371;BME280;48550;40.588;49.684;2022-08-19T03:18:59;100836.59;;;29.85;47.69
60371;BME280;48550;40.588;49.684;2022-08-19T03:21:31;100833.69;;;29.97;43.46
60371;BME280;48550;40.588;49.684;2022-08-19T03:23:59;100839.63;;;29.80;42.03
60371;BME280;48550;40.588;49.684;2022-08-19T03:26:25;100841.66;;;30.53;39.96
60371;BME280;48550;40.588;49.684;2022-08-19T03:28:51;100842.78;;;31.10;37.41
60371;BME280;48550;40.588;49.684;2022-08-19T03:31:20;100843.56;;;31.53;35.86
60371;BME280;48550;40.588;49.684;2022-08-19T03:33:48;100847.53;;;32.01;33.50
60371;BME280;48550;40.588;49.684;2022-08-19T03:36:18;100849.25;;;30.56;34.09
60371;BME280;48550;40.588;49.684;2022-08-19T03:38:47;100849.81;;;29.45;37.16
60371;BME280;48550;40.588;49.684;2022-08-19T03:41:19;100849.06;;;28.60;36.80
60371;BME280;48550;40.588;49.684;2022-08-19T03:43:46;100853.09;;;27.86;35.85
60371;BME280;48550;40.588;49.684;2022-08-19T03:46:15;100856.13;;;28.73;32.27
60371;BME280;48550;40.588;49.684;2022-08-19T03:48:43;100858.06;;;30.08;27.90
60371;BME280;48550;40.588;49.684;2022-08-19T03:51:21;100851.38;;;29.14;28.74
60371;BME280;48550;40.588;49.684;2022-08-19T03:53:47;100859.28;;;27.95;29.33
60371;BME280;48550;40.588;49.684;2022-08-19T03:56:14;100860.56;;;27.61;31.59
60371;BME280;48550;40.588;49.684;2022-08-19T03:58:40;100851.59;;;27.19;29.24
60371;BME280;48550;40.588;49.684;2022-08-19T04:01:13;100857.63;;;27.45;29.50
60371;BME280;48550;40.588;49.684;2022-08-19T04:03:39;100856.66;;;27.17;28.15
60371;BME280;48550;40.588;49.684;2022-08-19T04:06:13;100857.81;;;27.28;28.88
60371;BME280;48550;40.588;49.684;2022-08-19T04:08:40;100860.19;;;27.50;28.37
60371;BME280;48550;40.588;49.684;2022-08-19T04:11:10;100859.31;;;27.38;27.16
60371;BME280;48550;40.588;49.684;2022-08-19T04:13:37;100862.19;;;27.41;28.45
60371;BME280;48550;40.588;49.684;2022-08-19T04:16:04;100865.38;;;27.89;27.42
60371;BME280;48550;40.588;49.684;2022-08-19T04:18:31;100868.03;;;27.61;26.29
60371;BME280;48550;40.588;49.684;2022-08-19T04:20:58;100867.00;;;27.65;27.21
60371;BME280;48550;40.588;49.684;2022-08-19T04:23:24;100869.53;;;27.82;26.76
60371;BME280;48550;40.588;49.684;2022-08-19T04:25:50;100868.09;;;28.13;26.63
60371;BME280;48550;40.588;49.684;2022-08-19T04:28:16;100871.66;;;28.13;27.07
60371;BME280;48550;40.588;49.684;2022-08-19T04:30:44;100879.50;;;28.24;25.99
60371;BME280;48550;40.588;49.684;2022-08-19T04:33:12;100877.44;;;28.33;26.18
60371;BME280;48550;40.588;49.684;2022-08-19T04:35:40;100893.41;;;28.39;24.87
60371;BME280;48550;40.588;49.684;2022-08-19T04:38:07;100897.88;;;28.44;24.80
60371;BME280;48550;40.588;49.684;2022-08-19T04:40:34;100896.91;;;28.64;24.91
60371;BME280;48550;40.588;49.684;2022-08-19T04:43:23;100891.28;;;29.01;24.29
60371;BME280;48550;40.588;49.684;2022-08-19T04:45:48;100890.59;;;29.04;24.25
60371;BME280;48550;40.588;49.684;2022-08-19T04:48:15;100895.69;;;29.18;23.58
60371;BME280;48550;40.588;49.684;2022-08-19T04:50:43;100898.91;;;29.35;23.92
60371;BME280;48550;40.588;49.684;2022-08-19T04:53:09;100894.25;;;29.83;23.83
60371;BME280;48550;40.588;49.684;2022-08-19T04:55:38;100890.75;;;30.72;22.90
60371;BME280;48550;40.588;49.684;2022-08-19T04:58:04;100900.56;;;31.70;20.06
60371;BME280;48550;40.588;49.684;2022-08-19T05:00:30;100912.50;;;32.49;20.01
60371;BME280;48550;40.588;49.684;2022-08-19T05:02:55;100911.41;;;33.21;20.09
60371;BME280;48550;40.588;49.684;2022-08-19T05:05:21;100912.19;;;34.06;18.19
60371;BME280;48550;40.588;49.684;2022-08-19T05:07:47;100913.47;;;33.68;17.43
60371;BME280;48550;40.588;49.684;2022-08-19T05:10:13;100915.28;;;34.53;18.75
60371;BME280;48550;40.588;49.684;2022-08-19T05:12:38;100914.16;;;34.68;18.69
60371;BME280;48550;40.588;49.684;2022-08-19T05:15:05;100913.69;;;34.48;23.29
60371;BME280;48550;40.588;49.684;2022-08-19T05:17:33;100919.25;;;35.74;26.52
60371;BME280;48550;40.588;49.684;2022-08-19T05:19:59;100913.63;;;36.17;23.71
60371;BME280;48550;40.588;49.684;2022-08-19T05:22:45;100913.59;;;36.45;23.14
60371;BME280;48550;40.588;49.684;2022-08-19T05:25:16;100917.53;;;35.09;24.74
60371;BME280;48550;40.588;49.684;2022-08-19T05:27:44;100920.56;;;34.10;27.86
60371;BME280;48550;40.588;49.684;2022-08-19T05:30:11;100915.25;;;35.96;25.30
60371;BME280;48550;40.588;49.684;2022-08-19T05:32:38;100920.06;;;36.00;25.76
60371;BME280;48550;40.588;49.684;2022-08-19T05:35:04;100926.06;;;34.58;29.35
60371;BME280;48550;40.588;49.684;2022-08-19T05:37:30;100927.69;;;33.56;39.66
60371;BME280;48550;40.588;49.684;2022-08-19T05:39:56;100937.78;;;34.19;37.09
60371;BME280;48550;40.588;49.684;2022-08-19T05:42:22;100938.03;;;34.62;34.99
60371;BME280;48550;40.588;49.684;2022-08-19T05:44:48;100938.03;;;33.56;39.57
60371;BME280;48550;40.588;49.684;2022-08-19T05:47:15;100934.81;;;33.98;39.53
60371;BME280;48550;40.588;49.684;2022-08-19T05:49:42;100942.56;;;33.34;41.92
60371;BME280;48550;40.588;49.684;2022-08-19T05:52:10;100934.13;;;34.77;35.62
60371;BME280;48550;40.588;49.684;2022-08-19T05:54:38;100934.28;;;33.07;42.30
60371;BME280;48550;40.588;49.684;2022-08-19T05:57:06;100934.09;;;33.27;42.08
60371;BME280;48550;40.588;49.684;2022-08-19T05:59:32;100940.47;;;33.27;40.45
60371;BME280;48550;40.588;49.684;2022-08-19T06:02:01;100936.38;;;33.51;42.43
60371;BME280;48550;40.588;49.684;2022-08-19T06:04:27;100937.34;;;33.69;40.00
60371;BME280;48550;40.588;49.684;2022-08-19T06:06:54;100944.34;;;33.53;38.68
60371;BME280;48550;40.588;49.684;2022-08-19T06:09:22;100945.63;;;34.10;36.29
60371;BME280;48550;40.588;49.684;2022-08-19T06:11:54;100941.94;;;33.92;38.46
60371;BME280;48550;40.588;49.684;2022-08-19T06:14:26;100940.47;;;34.70;34.15
60371;BME280;48550;40.588;49.684;2022-08-19T06:16:52;100942.94;;;34.86;36.69
60371;BME280;48550;40.588;49.684;2022-08-19T06:19:20;100942.97;;;34.21;42.47
60371;BME280;48550;40.588;49.684;2022-08-19T06:21:48;100943.28;;;34.16;42.21
60371;BME280;48550;40.588;49.684;2022-08-19T06:24:19;100944.78;;;34.02;43.58
60371;BME280;48550;40.588;49.684;2022-08-19T06:26:48;100942.56;;;33.74;37.96
60371;BME280;48550;40.588;49.684;2022-08-19T06:29:15;100941.88;;;33.85;39.67
60371;BME280;48550;40.588;49.684;2022-08-19T06:31:45;100940.31;;;33.46;40.97
60371;BME280;48550;40.588;49.684;2022-08-19T06:34:12;100941.94;;;33.51;40.43
60371;BME280;48550;40.588;49.684;2022-08-19T06:36:42;100938.84;;;33.23;44.91
60371;BME280;48550;40.588;49.684;2022-08-19T06:39:36;100938.53;;;33.68;41.74
60371;BME280;48550;40.588;49.684;2022-08-19T06:42:05;100943.94;;;33.95;37.63
60371;BME280;48550;40.588;49.684;2022-08-19T06:44:34;100941.84;;;33.44;44.88
60371;BME280;48550;40.588;49.684;2022-08-19T06:47:03;100938.88;;;33.63;44.25
60371;BME280;48550;40.588;49.684;2022-08-19T06:49:29;100941.91;;;34.39;37.07
60371;BME280;48550;40.588;49.684;2022-08-19T06:51:57;100944.91;;;34.82;40.17
60371;BME280;48550;40.588;49.684;2022-08-19T06:54:24;100936.97;;;34.88;42.46
60371;BME280;48550;40.588;49.684;2022-08-19T06:56:51;100934.63;;;34.97;40.60
60371;BME280;48550;40.588;49.684;2022-08-19T06:59:19;100943.03;;;35.08;36.44
60371;BME280;48550;40.588;49.684;2022-08-19T07:01:48;100940.16;;;34.86;30.68
60371;BME280;48550;40.588;49.684;2022-08-19T07:04:17;100937.00;;;34.22;38.22
60371;BME280;48550;40.588;49.684;2022-08-19T07:06:44;100943.31;;;33.71;35.88
60371;BME280;48550;40.588;49.684;2022-08-19T07:09:13;100941.81;;;35.01;33.90
60371;BME280;48550;40.588;49.684;2022-08-19T07:11:46;100942.06;;;34.75;33.88
60371;BME280;48550;40.588;49.684;2022-08-19T07:14:13;100945.94;;;34.53;32.78
60371;BME280;48550;40.588;49.684;2022-08-19T07:16:39;100952.03;;;34.76;37.64
60371;BME280;48550;40.588;49.684;2022-08-19T07:19:05;100946.13;;;34.19;38.94
60371;BME280;48550;40.588;49.684;2022-08-19T07:21:31;100946.63;;;33.84;45.70
60371;BME280;48550;40.588;49.684;2022-08-19T07:23:58;100943.94;;;33.51;56.81
60371;BME280;48550;40.588;49.684;2022-08-19T07:26:30;100939.22;;;34.02;56.89
60371;BME280;48550;40.588;49.684;2022-08-19T07:28:58;100930.59;;;33.30;58.26
60371;BME280;48550;40.588;49.684;2022-08-19T07:31:27;100940.13;;;33.69;67.41
60371;BME280;48550;40.588;49.684;2022-08-19T07:33:55;100938.22;;;33.03;71.23
60371;BME280;48550;40.588;49.684;2022-08-19T07:36:26;100932.34;;;33.45;70.02
60371;BME280;48550;40.588;49.684;2022-08-19T07:38:56;100936.78;;;33.94;69.69
60371;BME280;48550;40.588;49.684;2022-08-19T07:41:24;100932.06;;;32.30;78.45
60371;BME280;48550;40.588;49.684;2022-08-19T07:43:51;100932.16;;;31.65;81.05
60371;BME280;48550;40.588;49.684;2022-08-19T07:46:18;100929.16;;;31.12;87.12
60371;BME280;48550;40.588;49.684;2022-08-19T07:48:47;100929.81;;;31.44;89.30
60371;BME280;48550;40.588;49.684;2022-08-19T07:51:18;100930.03;;;30.58;100.00
60371;BME280;48550;40.588;49.684;2022-08-19T07:53:45;100926.88;;;30.25;100.00
60371;BME280;48550;40.588;49.684;2022-08-19T07:56:13;100931.28;;;30.10;100.00
60371;BME280;48550;40.588;49.684;2022-08-19T07:58:42;100932.66;;;30.35;99.75
60371;BME280;48550;40.588;49.684;2022-08-19T08:01:11;100928.44;;;30.42;98.81
60371;BME280;48550;40.588;49.684;2022-08-19T08:03:37;100926.56;;;30.46;100.00
60371;BME280;48550;40.588;49.684;2022-08-19T08:06:22;100933.19;;;30.41;100.00
60371;BME280;48550;40.588;49.684;2022-08-19T08:09:07;100930.44;;;30.25;99.21
60371;BME280;48550;40.588;49.684;2022-08-19T08:11:42;100927.16;;;30.20;99.81
60371;BME280;48550;40.588;49.684;2022-08-19T08:14:18;100926.53;;;30.26;100.00
60371;BME280;48550;40.588;49.684;2022-08-19T08:16:45;100923.22;;;30.21;100.00
60371;BME280;48550;40.588;49.684;2022-08-19T08:19:12;100920.97;;;30.26;100.00
60371;BME280;48550;40.588;49.684;2022-08-19T08:21:40;100924.03;;;30.56;93.34
60371;BME280;48550;40.588;49.684;2022-08-19T08:24:06;100912.44;;;30.51;88.76
60371;BME280;48550;40.588;49.684;2022-08-19T08:26:32;100914.25;;;30.78;86.71
60371;BME280;48550;40.588;49.684;2022-08-19T08:28:57;100908.41;;;30.83;86.86
60371;BME280;48550;40.588;49.684;2022-08-19T08:31:23;100911.09;;;30.80;79.62
60371;BME280;48550;40.588;49.684;2022-08-19T08:33:49;100914.28;;;31.01;75.10
60371;BME280;48550;40.588;49.684;2022-08-19T08:36:16;100909.84;;;31.16;74.88
60371;BME280;48550;40.588;49.684;2022-08-19T08:38:43;100911.69;;;31.27;73.97
60371;BME280;48550;40.588;49.684;2022-08-19T08:43:49;100903.03;;;31.13;72.46
60371;BME280;48550;40.588;49.684;2022-08-19T08:46:26;100915.91;;;31.02;75.32
60371;BME280;48550;40.588;49.684;2022-08-19T08:51:40;100905.63;;;31.03;80.69
60371;BME280;48550;40.588;49.684;2022-08-19T08:54:11;100911.97;;;31.03;81.33
60371;BME280;48550;40.588;49.684;2022-08-19T08:56:40;100913.69;;;31.11;81.16
60371;BME280;48550;40.588;49.684;2022-08-19T08:59:23;100900.81;;;31.19;82.35
60371;BME280;48550;40.588;49.684;2022-08-19T09:01:51;100909.66;;;31.47;82.09
60371;BME280;48550;40.588;49.684;2022-08-19T09:04:17;100910.09;;;31.49;76.82
60371;BME280;48550;40.588;49.684;2022-08-19T09:09:41;100894.78;;;31.59;71.98
60371;BME280;48550;40.588;49.684;2022-08-19T09:12:12;100896.47;;;31.86;64.86
60371;BME280;48550;40.588;49.684;2022-08-19T09:14:56;100884.19;;;32.14;62.26
60371;BME280;48550;40.588;49.684;2022-08-19T09:17:26;100888.56;;;32.41;58.75
60371;BME280;48550;40.588;49.684;2022-08-19T09:20:20;100880.41;;;32.55;49.58
60371;BME280;48550;40.588;49.684;2022-08-19T09:22:45;100882.06;;;32.90;47.50
60371;BME280;48550;40.588;49.684;2022-08-19T09:25:13;100872.84;;;33.20;44.46
60371;BME280;48550;40.588;49.684;2022-08-19T09:27:40;100876.63;;;33.41;30.19
60371;BME280;48550;40.588;49.684;2022-08-19T09:30:11;100886.94;;;34.33;21.57
60371;BME280;48550;40.588;49.684;2022-08-19T09:32:37;100876.34;;;34.78;20.41
60371;BME280;48550;40.588;49.684;2022-08-19T09:35:05;100888.47;;;35.21;19.82
60371;BME280;48550;40.588;49.684;2022-08-19T09:37:31;100884.13;;;35.38;17.67
60371;BME280;48550;40.588;49.684;2022-08-19T09:39:58;100887.31;;;35.43;17.74
60371;BME280;48550;40.588;49.684;2022-08-19T09:42:24;100883.72;;;35.39;17.47
60371;BME280;48550;40.588;49.684;2022-08-19T09:44:49;100890.91;;;35.40;15.64
60371;BME280;48550;40.588;49.684;2022-08-19T09:47:15;100885.34;;;35.69;15.82
60371;BME280;48550;40.588;49.684;2022-08-19T09:49:42;100879.78;;;35.83;16.32
60371;BME280;48550;40.588;49.684;2022-08-19T09:52:09;100882.94;;;35.78;16.13
60371;BME280;48550;40.588;49.684;2022-08-19T09:54:36;100884.13;;;35.73;15.22
60371;BME280;48550;40.588;49.684;2022-08-19T09:57:02;100890.16;;;35.82;15.85
60371;BME280;48550;40.588;49.684;2022-08-19T09:59:29;100880.94;;;35.78;14.59
60371;BME280;48550;40.588;49.684;2022-08-19T10:01:55;100889.34;;;35.82;14.76
60371;BME280;48550;40.588;49.684;2022-08-19T10:04:21;100886.13;;;35.94;14.60
60371;BME280;48550;40.588;49.684;2022-08-19T10:06:48;100891.34;;;35.88;15.07
60371;BME280;48550;40.588;49.684;2022-08-19T10:09:16;100892.13;;;35.78;15.36
60371;BME280;48550;40.588;49.684;2022-08-19T10:11:44;100886.56;;;35.82;13.58
60371;BME280;48550;40.588;49.684;2022-08-19T10:14:14;100886.53;;;35.89;13.63
60371;BME280;48550;40.588;49.684;2022-08-19T10:16:42;100885.75;;;35.92;14.35
60371;BME280;48550;40.588;49.684;2022-08-19T10:19:08;100893.72;;;35.93;13.45
60371;BME280;48550;40.588;49.684;2022-08-19T10:21:35;100896.13;;;35.91;13.04
60371;BME280;48550;40.588;49.684;2022-08-19T10:24:03;100890.13;;;35.79;13.33
60371;BME280;48550;40.588;49.684;2022-08-19T10:26:36;100903.31;;;35.89;12.79
60371;BME280;48550;40.588;49.684;2022-08-19T10:29:04;100908.06;;;36.03;12.21
60371;BME280;48550;40.588;49.684;2022-08-19T10:31:32;100902.09;;;35.86;12.52
60371;BME280;48550;40.588;49.684;2022-08-19T10:33:58;100902.09;;;35.76;12.70
60371;BME280;48550;40.588;49.684;2022-08-19T10:36:35;100899.28;;;35.76;12.43
60371;BME280;48550;40.588;49.684;2022-08-19T10:39:07;100893.34;;;35.81;12.38
60371;BME280;48550;40.588;49.684;2022-08-19T10:41:37;100898.53;;;35.86;12.68
60371;BME280;48550;40.588;49.684;2022-08-19T10:44:06;100900.91;;;35.73;12.76
60371;BME280;48550;40.588;49.684;2022-08-19T10:46:35;100892.09;;;35.46;12.98
60371;BME280;48550;40.588;49.684;2022-08-19T10:49:02;100903.25;;;35.53;12.50
60371;BME280;48550;40.588;49.684;2022-08-19T10:51:28;100896.47;;;35.54;13.18
60371;BME280;48550;40.588;49.684;2022-08-19T10:54:13;100900.88;;;35.52;13.26
60371;BME280;48550;40.588;49.684;2022-08-19T10:56:39;100886.50;;;35.57;13.46
60371;BME280;48550;40.588;49.684;2022-08-19T10:59:24;100898.47;;;35.57;13.47
60371;BME280;48550;40.588;49.684;2022-08-19T11:01:50;100897.69;;;35.53;13.91
60371;BME280;48550;40.588;49.684;2022-08-19T11:04:18;100910.03;;;35.63;13.64
60371;BME280;48550;40.588;49.684;2022-08-19T11:06:47;100900.88;;;35.62;13.61
60371;BME280;48550;40.588;49.684;2022-08-19T11:09:21;100910.03;;;35.52;13.87
60371;BME280;48550;40.588;49.684;2022-08-19T11:11:50;100922.00;;;35.56;13.45
60371;BME280;48550;40.588;49.684;2022-08-19T11:14:17;100906.44;;;35.48;12.45
60371;BME280;48550;40.588;49.684;2022-08-19T11:16:45;100899.69;;;35.49;12.08
60371;BME280;48550;40.588;49.684;2022-08-19T11:19:11;100900.06;;;35.44;12.97
60371;BME280;48550;40.588;49.684;2022-08-19T11:21:43;100908.44;;;35.44;12.14
60371;BME280;48550;40.588;49.684;2022-08-19T11:24:15;100898.09;;;35.48;12.25
60371;BME280;48550;40.588;49.684;2022-08-19T11:26:42;100899.69;;;35.49;13.03
60371;BME280;48550;40.588;49.684;2022-08-19T11:29:10;100895.28;;;35.48;13.05
60371;BME280;48550;40.588;49.684;2022-08-19T11:31:38;100898.09;;;35.52;12.71
60371;BME280;48550;40.588;49.684;2022-08-19T11:34:07;100892.09;;;35.50;14.20
60371;BME280;48550;40.588;49.684;2022-08-19T11:36:34;100896.88;;;35.53;13.31
60371;BME280;48550;40.588;49.684;2022-08-19T11:39:05;100891.28;;;35.35;13.39
60371;BME280;48550;40.588;49.684;2022-08-19T11:41:31;100893.66;;;35.22;13.96
60371;BME280;48550;40.588;49.684;2022-08-19T11:43:57;100887.28;;;35.25;13.51
60371;BME280;48550;40.588;49.684;2022-08-19T11:46:24;100888.88;;;35.26;12.11
60371;BME280;48550;40.588;49.684;2022-08-19T11:48:51;100888.09;;;35.33;13.49
60371;BME280;48550;40.588;49.684;2022-08-19T11:51:21;100890.06;;;35.29;13.54
60371;BME280;48550;40.588;49.684;2022-08-19T11:53:47;100895.66;;;35.29;14.55
60371;BME280;48550;40.588;49.684;2022-08-19T11:56:13;100896.03;;;35.24;12.80
60371;BME280;48550;40.588;49.684;2022-08-19T11:58:40;100891.25;;;35.28;13.53
60371;BME280;48550;40.588;49.684;2022-08-19T12:01:11;100895.63;;;35.25;13.38
60371;BME280;48550;40.588;49.684;2022-08-19T12:03:38;100900.47;;;35.32;13.49
60371;BME280;48550;40.588;49.684;2022-08-19T12:06:06;100890.47;;;35.31;13.34
60371;BME280;48550;40.588;49.684;2022-08-19T12:08:32;100901.22;;;35.25;12.46
60371;BME280;48550;40.588;49.684;2022-08-19T12:10:58;100898.44;;;35.22;13.00
60371;BME280;48550;40.588;49.684;2022-08-19T12:13:28;100898.03;;;35.20;12.59
60371;BME280;48550;40.588;49.684;2022-08-19T12:15:54;100905.59;;;35.16;11.92
60371;BME280;48550;40.588;49.684;2022-08-19T12:18:19;100906.75;;;35.04;12.20
60371;BME280;48550;40.588;49.684;2022-08-19T12:20:45;100899.19;;;35.08;12.96
60371;BME280;48550;40.588;49.684;2022-08-19T12:23:13;100902.78;;;35.12;13.24
60371;BME280;48550;40.588;49.684;2022-08-19T12:25:49;100904.38;;;35.10;12.82
60371;BME280;48550;40.588;49.684;2022-08-19T12:28:22;100902.75;;;34.98;13.39
60371;BME280;48550;40.588;49.684;2022-08-19T12:30:49;100905.16;;;35.03;14.19
60371;BME280;48550;40.588;49.684;2022-08-19T12:33:19;100907.16;;;34.95;14.84
60371;BME280;48550;40.588;49.684;2022-08-19T12:35:49;100908.69;;;34.89;15.94
60371;BME280;48550;40.588;49.684;2022-08-19T12:38:15;100909.47;;;34.83;15.96
60371;BME280;48550;40.588;49.684;2022-08-19T12:40:41;100910.25;;;34.83;15.01
60371;BME280;48550;40.588;49.684;2022-08-19T12:43:10;100904.66;;;34.80;15.76
60371;BME280;48550;40.588;49.684;2022-08-19T12:45:36;100905.00;;;34.71;15.88
60371;BME280;48550;40.588;49.684;2022-08-19T12:48:03;100904.63;;;34.72;16.89
60371;BME280;48550;40.588;49.684;2022-08-19T12:50:30;100906.19;;;34.70;17.35
60371;BME280;48550;40.588;49.684;2022-08-19T12:52:56;100909.78;;;34.70;18.18